createdAt,value
2018-07-19T00:00:38.140Z,48.09
2018-07-19T00:03:05.603Z,48.15
2018-07-19T00:05:33.044Z,48.22
2018-07-19T00:08:00.562Z,48.48
2018-07-19T00:10:28.019Z,48.62
2018-07-19T00:12:55.454Z,48.68
2018-07-19T00:15:22.872Z,48.71
2018-07-19T00:17:50.357Z,48.99
2018-07-19T00:20:17.785Z,49.25
2018-07-19T00:22:45.265Z,49.45
2018-07-19T00:25:12.734Z,49.31
2018-07-19T00:27:40.213Z,49.20
2018-07-19T00:30:07.682Z,49.34
2018-07-19T00:32:35.142Z,49.46
2018-07-19T00:35:02.599Z,49.37
2018-07-19T00:37:30.098Z,49.04
2018-07-19T00:39:57.614Z,48.81
2018-07-19T00:42:25.049Z,48.89
2018-07-19T00:44:52.564Z,49.12
2018-07-19T00:47:20.041Z,48.98
2018-07-19T00:49:47.488Z,48.92
2018-07-19T00:52:14.967Z,49.05
2018-07-19T00:54:42.413Z,48.96
2018-07-19T00:57:09.908Z,48.87
2018-07-19T00:59:37.365Z,48.95
2018-07-19T01:02:04.859Z,49.05
2018-07-19T01:04:32.368Z,49.08
2018-07-19T01:06:59.957Z,49.09
2018-07-19T01:09:28.116Z,49.16
2018-07-19T01:11:55.615Z,49.17
2018-07-19T01:14:23.136Z,49.13
2018-07-19T01:16:50.625Z,49.22
2018-07-19T01:19:18.116Z,49.41
2018-07-19T01:21:46.529Z,49.54
2018-07-19T01:24:13.985Z,49.85
2018-07-19T01:26:41.505Z,50.07
2018-07-19T01:29:09.039Z,50.14
2018-07-19T01:31:36.492Z,49.91
2018-07-19T01:34:04.005Z,50.14
2018-07-19T01:36:31.508Z,50.40
2018-07-19T01:38:58.947Z,50.68
2018-07-19T01:41:26.552Z,50.96
2018-07-19T01:43:54.006Z,51.04
2018-07-19T01:46:21.467Z,51.04
2018-07-19T01:48:48.942Z,51.13
2018-07-19T01:51:16.404Z,51.03
2018-07-19T01:53:43.868Z,51.28
2018-07-19T01:56:11.321Z,51.50
2018-07-19T01:58:38.761Z,51.48
2018-07-19T02:01:06.237Z,51.53
2018-07-19T02:03:33.713Z,51.39
2018-07-19T02:06:01.171Z,51.34
2018-07-19T02:08:28.658Z,51.30
2018-07-19T02:10:56.079Z,51.48
2018-07-19T02:13:23.496Z,51.32
2018-07-19T02:15:50.963Z,51.56
2018-07-19T02:18:18.399Z,51.78
2018-07-19T02:20:45.980Z,51.91
2018-07-19T02:23:13.478Z,52.02
2018-07-19T02:25:41.000Z,52.73
2018-07-19T02:28:08.463Z,53.09
2018-07-19T02:30:36.040Z,53.46
2018-07-19T02:33:03.495Z,53.67
2018-07-19T02:35:30.965Z,53.71
2018-07-19T02:37:58.514Z,53.62
2018-07-19T02:40:26.387Z,53.86
2018-07-19T02:42:53.962Z,53.79
2018-07-19T02:45:21.622Z,53.47
2018-07-19T02:47:49.083Z,53.58
2018-07-19T02:50:16.507Z,53.54
2018-07-19T02:52:44.426Z,53.59
2018-07-19T02:55:11.998Z,53.76
2018-07-19T02:57:40.024Z,53.82
2018-07-19T03:00:07.475Z,53.84
2018-07-19T03:02:34.922Z,53.93
2018-07-19T03:05:02.395Z,54.32
2018-07-19T03:07:29.873Z,54.22
2018-07-19T03:09:57.344Z,54.34
2018-07-19T03:12:24.843Z,54.72
2018-07-19T03:14:52.457Z,54.99
2018-07-19T03:17:19.913Z,54.91
2018-07-19T03:19:47.349Z,55.04
2018-07-19T03:22:14.840Z,55.03
2018-07-19T03:24:42.337Z,54.83
2018-07-19T03:27:09.793Z,55.17
2018-07-19T03:29:37.399Z,55.71
2018-07-19T03:32:04.882Z,55.88
2018-07-19T03:34:32.327Z,55.57
2018-07-19T03:36:59.769Z,55.27
2018-07-19T03:39:27.214Z,55.21
2018-07-19T03:41:54.661Z,55.59
2018-07-19T03:44:22.085Z,55.96
2018-07-19T03:46:49.542Z,56.42
2018-07-19T03:49:16.991Z,56.51
2018-07-19T03:51:44.473Z,56.84
2018-07-19T03:54:12.029Z,57.25
2018-07-19T03:56:39.525Z,56.83
2018-07-19T03:59:06.965Z,56.11
2018-07-19T04:01:34.376Z,56.20
2018-07-19T04:04:01.875Z,56.50
2018-07-19T04:06:29.315Z,56.66
2018-07-19T04:08:56.797Z,56.62
2018-07-19T04:11:24.221Z,56.60
2018-07-19T04:13:51.660Z,56.92
2018-07-19T04:16:19.128Z,57.33
2018-07-19T04:18:46.571Z,57.62
2018-07-19T04:21:14.050Z,57.42
2018-07-19T04:23:41.544Z,57.17
2018-07-19T04:26:09.035Z,56.84
2018-07-19T04:28:36.493Z,57.08
2018-07-19T04:31:04.010Z,57.27
2018-07-19T04:33:31.452Z,57.31
2018-07-19T04:35:58.890Z,57.06
2018-07-19T04:38:26.441Z,56.97
2018-07-19T04:40:54.001Z,56.89
2018-07-19T04:43:21.459Z,56.98
2018-07-19T04:45:48.957Z,57.16
2018-07-19T04:48:16.439Z,56.76
2018-07-19T04:50:44.160Z,55.80
2018-07-19T04:53:11.626Z,55.72
2018-07-19T04:55:39.123Z,54.88
2018-07-19T04:58:07.156Z,54.86
2018-07-19T05:00:34.603Z,54.61
2018-07-19T05:03:02.109Z,54.16
2018-07-19T05:05:29.579Z,53.65
2018-07-19T05:07:57.050Z,53.76
2018-07-19T05:10:24.534Z,54.36
2018-07-19T05:12:52.070Z,54.81
2018-07-19T05:15:19.594Z,54.86
2018-07-19T05:17:47.045Z,54.79
2018-07-19T05:20:14.507Z,54.49
2018-07-19T05:22:42.028Z,54.30
2018-07-19T05:25:09.699Z,53.80
2018-07-19T05:27:37.249Z,53.62
2018-07-19T05:30:04.868Z,53.28
2018-07-19T05:32:33.134Z,52.86
2018-07-19T05:35:00.580Z,52.79
2018-07-19T05:37:28.091Z,52.20
2018-07-19T05:39:55.610Z,51.58
2018-07-19T05:42:23.119Z,51.36
2018-07-19T05:44:50.624Z,51.25
2018-07-19T05:47:18.087Z,50.94
2018-07-19T05:49:45.579Z,50.46
2018-07-19T05:52:13.012Z,50.14
2018-07-19T05:54:40.473Z,50.24
2018-07-19T05:57:07.970Z,50.63
2018-07-19T05:59:35.476Z,50.78
2018-07-19T06:02:02.926Z,50.61
2018-07-19T06:04:30.401Z,50.41
2018-07-19T06:06:57.844Z,50.36
2018-07-19T06:09:25.948Z,50.56
2018-07-19T06:11:53.359Z,50.56
2018-07-19T06:14:20.868Z,50.82
2018-07-19T06:16:48.433Z,50.45
2018-07-19T06:19:15.916Z,50.04
2018-07-19T06:21:43.821Z,49.67
2018-07-19T06:24:11.294Z,49.53
2018-07-19T06:26:38.760Z,49.01
2018-07-19T06:29:07.020Z,48.75
2018-07-19T06:31:34.570Z,49.08
2018-07-19T06:34:02.059Z,49.27
2018-07-19T06:36:29.775Z,49.17
2018-07-19T06:38:57.246Z,49.13
2018-07-19T06:41:24.745Z,49.38
2018-07-19T06:43:52.190Z,49.15
2018-07-19T06:46:19.643Z,48.67
2018-07-19T06:48:47.138Z,49.25
2018-07-19T06:51:14.635Z,49.63
2018-07-19T06:53:42.051Z,48.90
2018-07-19T06:56:09.477Z,48.14
2018-07-19T06:58:36.962Z,47.53
2018-07-19T07:01:04.502Z,47.09
2018-07-19T07:03:32.173Z,46.63
2018-07-19T07:05:59.545Z,45.67
2018-07-19T07:08:26.994Z,44.41
2018-07-19T07:10:54.545Z,43.20
2018-07-19T07:13:22.308Z,42.94
2018-07-19T07:15:49.775Z,42.83
2018-07-19T07:18:17.266Z,43.18
2018-07-19T07:20:44.818Z,42.68
2018-07-19T07:23:12.251Z,42.29
2018-07-19T07:25:39.761Z,42.48
2018-07-19T07:28:07.453Z,41.64
2018-07-19T07:30:35.028Z,40.93
2018-07-19T07:33:02.508Z,41.37
2018-07-19T07:35:30.033Z,40.77
2018-07-19T07:37:58.496Z,40.05
2018-07-19T07:40:25.936Z,39.82
2018-07-19T07:42:53.398Z,39.74
2018-07-19T07:45:20.838Z,39.33
2018-07-19T07:47:48.318Z,39.51
2018-07-19T07:50:15.817Z,39.78
2018-07-19T07:52:43.340Z,39.11
2018-07-19T07:55:10.922Z,37.87
2018-07-19T07:57:38.327Z,37.33
2018-07-19T08:00:05.747Z,36.46
2018-07-19T08:02:33.355Z,35.99
2018-07-19T08:05:00.870Z,36.30
2018-07-19T08:07:28.371Z,36.05
2018-07-19T08:09:55.856Z,36.21
2018-07-19T08:12:23.382Z,35.74
2018-07-19T08:14:50.812Z,35.24
2018-07-19T08:17:18.313Z,35.17
2018-07-19T08:19:45.836Z,35.23
2018-07-19T08:22:13.296Z,35.07
2018-07-19T08:24:40.846Z,34.91
2018-07-19T08:27:08.464Z,33.81
2018-07-19T08:29:35.990Z,33.66
2018-07-19T08:32:03.463Z,34.56
2018-07-19T08:34:30.952Z,36.09
2018-07-19T08:36:58.459Z,36.61
2018-07-19T08:39:26.112Z,37.10
2018-07-19T08:41:54.162Z,36.78
2018-07-19T08:44:21.600Z,37.05
2018-07-19T08:46:49.109Z,36.76
2018-07-19T08:49:16.584Z,36.51
2018-07-19T08:51:44.182Z,36.37
2018-07-19T08:54:11.655Z,35.04
2018-07-19T08:56:39.200Z,35.93
2018-07-19T08:59:06.635Z,36.88
2018-07-19T09:01:34.109Z,36.30
2018-07-19T09:04:01.698Z,37.21
2018-07-19T09:06:29.186Z,36.72
2018-07-19T09:08:57.245Z,35.76
2018-07-19T09:11:24.808Z,35.18
2018-07-19T09:13:52.328Z,35.44
2018-07-19T09:16:19.847Z,35.17
2018-07-19T09:18:47.290Z,34.78
2018-07-19T09:21:14.799Z,34.32
2018-07-19T09:23:42.363Z,34.36
2018-07-19T09:26:09.802Z,34.23
2018-07-19T09:28:37.343Z,34.84
2018-07-19T09:31:04.863Z,36.24
2018-07-19T09:33:33.125Z,36.83
2018-07-19T09:36:00.599Z,36.53
2018-07-19T09:38:28.192Z,35.86
2018-07-19T09:40:55.691Z,36.24
2018-07-19T09:43:23.212Z,35.42
2018-07-19T09:45:50.695Z,35.54
2018-07-19T09:48:18.166Z,35.68
2018-07-19T09:50:45.725Z,35.11
2018-07-19T09:53:12.776Z,34.21
2018-07-19T09:55:40.158Z,33.64
2018-07-19T09:58:07.244Z,33.97
2018-07-19T10:00:34.879Z,33.27
2018-07-19T10:03:01.992Z,34.27
2018-07-19T10:05:29.104Z,33.79
2018-07-19T10:07:56.135Z,33.44
2018-07-19T10:10:23.123Z,32.92
2018-07-19T10:12:50.605Z,32.61
2018-07-19T10:15:17.697Z,32.41
2018-07-19T10:17:45.296Z,32.44
2018-07-19T10:20:12.896Z,32.00
2018-07-19T10:22:40.443Z,31.70
2018-07-19T10:25:07.971Z,31.19
2018-07-19T10:27:35.572Z,31.46
2018-07-19T10:30:03.926Z,31.46
2018-07-19T10:32:32.050Z,31.40
2018-07-19T10:34:59.403Z,30.56
2018-07-19T10:37:26.937Z,30.68
2018-07-19T10:39:54.389Z,31.22
2018-07-19T10:42:21.881Z,31.59
2018-07-19T10:44:49.467Z,31.31
2018-07-19T10:47:16.949Z,31.61
2018-07-19T10:49:44.482Z,30.80
2018-07-19T10:52:12.250Z,31.31
2018-07-19T10:54:39.847Z,30.92
2018-07-19T10:57:07.780Z,30.68
2018-07-19T10:59:35.434Z,30.02
2018-07-19T11:02:02.898Z,29.75
2018-07-19T11:04:31.115Z,29.91
2018-07-19T11:06:58.936Z,30.21
2018-07-19T11:09:26.778Z,30.53
2018-07-19T11:11:54.210Z,30.87
2018-07-19T11:14:22.096Z,31.00
2018-07-19T11:16:49.594Z,30.88
2018-07-19T11:19:17.178Z,30.98
2018-07-19T11:21:44.603Z,30.46
2018-07-19T11:24:12.117Z,29.57
2018-07-19T11:26:39.608Z,29.88
2018-07-19T11:29:07.079Z,29.57
2018-07-19T11:31:34.581Z,30.13
2018-07-19T11:34:02.099Z,30.23
2018-07-19T11:36:29.636Z,29.87
2018-07-19T11:38:57.210Z,29.61
2018-07-19T11:41:24.753Z,29.53
2018-07-19T11:43:52.310Z,28.89
2018-07-19T11:46:19.753Z,28.48
2018-07-19T11:48:47.217Z,27.61
2018-07-19T11:51:14.666Z,27.15
2018-07-19T11:53:41.694Z,27.59
2018-07-19T11:56:08.713Z,26.98
2018-07-19T11:58:35.772Z,26.97
2018-07-19T12:01:02.862Z,25.09
2018-07-19T12:03:30.367Z,25.40
2018-07-19T12:05:57.776Z,25.47
2018-07-19T12:08:25.307Z,26.07
2018-07-19T12:10:52.766Z,26.48
2018-07-19T12:13:19.840Z,26.67
2018-07-19T12:15:47.315Z,25.50
2018-07-19T12:18:14.304Z,25.93
2018-07-19T12:20:41.815Z,24.85
2018-07-19T12:23:10.239Z,22.99
2018-07-19T12:25:37.831Z,25.69
2018-07-19T12:28:05.291Z,25.75
2018-07-19T12:30:32.796Z,25.62
2018-07-19T12:33:00.210Z,26.67
2018-07-19T12:35:27.685Z,26.50
2018-07-19T12:37:55.184Z,27.04
2018-07-19T12:40:22.647Z,26.66
2018-07-19T12:42:50.170Z,27.51
2018-07-19T12:45:18.689Z,27.48
2018-07-19T12:47:46.183Z,27.57
2018-07-19T12:50:13.682Z,28.26
2018-07-19T12:52:41.131Z,28.33
2018-07-19T12:55:08.747Z,28.03
2018-07-19T12:57:36.260Z,27.58
2018-07-19T13:00:03.761Z,27.10
2018-07-19T13:02:31.180Z,27.27
2018-07-19T13:04:58.594Z,27.07
2018-07-19T13:07:26.025Z,23.74
2018-07-19T13:09:53.532Z,23.45
2018-07-19T13:12:21.365Z,23.37
2018-07-19T13:14:48.846Z,23.86
2018-07-19T13:17:16.321Z,23.67
2018-07-19T13:19:43.806Z,22.73
2018-07-19T13:22:11.263Z,22.78
2018-07-19T13:24:38.332Z,23.34
2018-07-19T13:27:06.018Z,23.13
2018-07-19T13:29:33.504Z,21.44
2018-07-19T13:32:01.036Z,21.37
2018-07-19T13:34:28.546Z,21.35
2018-07-19T13:36:56.165Z,21.91
2018-07-19T13:39:23.801Z,23.88
2018-07-19T13:41:51.227Z,24.57
2018-07-19T13:44:18.699Z,23.10
2018-07-19T13:46:46.151Z,23.17
2018-07-19T13:49:14.273Z,23.62
2018-07-19T13:51:41.883Z,23.52
2018-07-19T13:54:10.389Z,21.75
2018-07-19T13:56:37.948Z,22.53
2018-07-19T13:59:05.392Z,22.19
2018-07-19T14:01:32.847Z,22.84
2018-07-19T14:04:00.366Z,22.59
2018-07-19T14:06:27.857Z,22.28
2018-07-19T14:08:55.332Z,21.54
2018-07-19T14:11:22.936Z,21.48
2018-07-19T14:13:50.388Z,20.18
2018-07-19T14:16:17.852Z,19.55
2018-07-19T14:18:45.496Z,19.41
2018-07-19T14:21:12.985Z,18.77
2018-07-19T14:23:40.519Z,19.33
2018-07-19T14:26:08.020Z,19.79
2018-07-19T14:28:35.539Z,20.08
2018-07-19T14:31:02.971Z,19.60
2018-07-19T14:33:30.459Z,20.11
2018-07-19T14:35:58.078Z,20.52
2018-07-19T14:38:25.592Z,20.88
2018-07-19T14:40:54.097Z,20.91
2018-07-19T14:43:21.703Z,21.62
2018-07-19T14:45:49.199Z,22.23
2018-07-19T14:48:16.670Z,22.67
2018-07-19T14:50:44.118Z,22.77
2018-07-19T14:53:11.714Z,22.73
2018-07-19T14:55:39.132Z,21.99
2018-07-19T14:58:06.774Z,22.28
2018-07-19T15:00:34.387Z,22.17
2018-07-19T15:03:02.183Z,22.31
2018-07-19T15:05:29.652Z,21.20
2018-07-19T15:07:57.118Z,21.95
2018-07-19T15:10:24.569Z,21.78
2018-07-19T15:12:52.126Z,22.77
2018-07-19T15:15:19.673Z,22.14
2018-07-19T15:17:47.186Z,22.21
2018-07-19T15:20:14.809Z,22.48
2018-07-19T15:22:43.533Z,22.35
2018-07-19T15:25:11.099Z,22.10
2018-07-19T15:27:38.810Z,22.46
2018-07-19T15:30:06.247Z,22.83
2018-07-19T15:32:33.699Z,22.98
2018-07-19T15:35:01.126Z,22.75
2018-07-19T15:37:28.563Z,23.03
2018-07-19T15:39:56.113Z,23.11
2018-07-19T15:42:23.610Z,22.17
2018-07-19T15:44:51.111Z,20.86
2018-07-19T15:47:18.684Z,19.39
2018-07-19T15:49:46.199Z,19.68
2018-07-19T15:52:13.648Z,19.87
2018-07-19T15:54:41.120Z,19.48
2018-07-19T15:57:08.638Z,18.09
2018-07-19T15:59:36.105Z,19.88
2018-07-19T16:02:03.607Z,19.97
2018-07-19T16:04:31.074Z,21.00
2018-07-19T16:06:58.602Z,21.09
2018-07-19T16:09:26.073Z,21.05
2018-07-19T16:11:53.552Z,21.00
2018-07-19T16:14:21.390Z,20.46
2018-07-19T16:16:48.917Z,20.13
2018-07-19T16:19:16.394Z,19.93
2018-07-19T16:21:44.072Z,20.03
2018-07-19T16:24:11.565Z,19.51
2018-07-19T16:26:39.120Z,19.99
2018-07-19T16:29:06.687Z,19.91
2018-07-19T16:31:34.212Z,19.90
2018-07-19T16:34:01.920Z,19.43
2018-07-19T16:36:29.380Z,19.12
2018-07-19T16:38:56.892Z,19.02
2018-07-19T16:41:24.356Z,19.59
2018-07-19T16:43:51.912Z,20.67
2018-07-19T16:46:19.343Z,21.32
2018-07-19T16:48:46.840Z,21.53
2018-07-19T16:51:14.300Z,21.43
2018-07-19T16:53:41.880Z,21.54
2018-07-19T16:56:09.355Z,21.96
2018-07-19T16:58:36.758Z,22.66
2018-07-19T17:01:04.206Z,22.64
2018-07-19T17:03:31.661Z,23.58
2018-07-19T17:05:59.111Z,24.09
2018-07-19T17:08:26.665Z,24.22
2018-07-19T17:10:54.121Z,23.43
2018-07-19T17:13:21.662Z,22.69
2018-07-19T17:15:49.154Z,22.59
2018-07-19T17:18:16.673Z,23.28
2018-07-19T17:20:44.385Z,24.78
2018-07-19T17:23:11.807Z,26.24
2018-07-19T17:25:39.308Z,28.34
2018-07-19T17:28:06.888Z,29.99
2018-07-19T17:30:34.364Z,30.47
2018-07-19T17:33:01.827Z,30.69
2018-07-19T17:35:29.328Z,30.41
2018-07-19T17:37:56.774Z,29.85
2018-07-19T17:40:24.224Z,29.87
2018-07-19T17:42:51.813Z,29.95
2018-07-19T17:45:19.315Z,30.13
2018-07-19T17:47:46.763Z,30.40
2018-07-19T17:50:14.270Z,30.65
2018-07-19T17:52:41.690Z,30.86
2018-07-19T17:55:09.134Z,30.88
2018-07-19T17:57:36.574Z,31.16
2018-07-19T18:00:04.172Z,31.25
2018-07-19T18:02:31.678Z,31.64
2018-07-19T18:04:59.862Z,32.13
2018-07-19T18:07:27.347Z,32.28
2018-07-19T18:09:54.838Z,32.53
2018-07-19T18:12:22.450Z,32.30
2018-07-19T18:14:49.966Z,32.10
2018-07-19T18:17:17.476Z,31.79
2018-07-19T18:19:45.013Z,31.67
2018-07-19T18:22:12.553Z,31.55
2018-07-19T18:24:39.992Z,31.72
2018-07-19T18:27:07.426Z,31.98
2018-07-19T18:29:34.889Z,32.21
2018-07-19T18:32:02.414Z,32.58
2018-07-19T18:34:29.864Z,33.12
2018-07-19T18:36:57.425Z,35.79
2018-07-19T18:39:24.979Z,36.31
2018-07-19T18:41:52.415Z,36.35
2018-07-19T18:44:19.941Z,36.78
2018-07-19T18:46:48.118Z,38.82
2018-07-19T18:49:15.730Z,39.27
2018-07-19T18:51:43.485Z,38.22
2018-07-19T18:54:11.023Z,37.53
2018-07-19T18:56:38.457Z,37.79
2018-07-19T18:59:06.005Z,38.20
2018-07-19T19:01:33.684Z,38.07
2018-07-19T19:04:01.185Z,37.97
2018-07-19T19:06:28.932Z,38.92
2018-07-19T19:08:56.452Z,38.13
2018-07-19T19:11:23.933Z,38.38
2018-07-19T19:13:51.497Z,38.21
2018-07-19T19:16:18.956Z,38.05
2018-07-19T19:18:46.461Z,38.33
2018-07-19T19:21:14.037Z,38.74
2018-07-19T19:23:41.677Z,39.00
2018-07-19T19:26:09.189Z,39.17
2018-07-19T19:28:36.672Z,41.21
2018-07-19T19:31:04.123Z,42.97
2018-07-19T19:33:31.638Z,43.56
2018-07-19T19:35:59.087Z,43.88
2018-07-19T19:38:27.431Z,44.28
2018-07-19T19:40:54.929Z,44.36
2018-07-19T19:43:22.391Z,44.15
2018-07-19T19:45:49.861Z,43.63
2018-07-19T19:48:17.678Z,43.44
2018-07-19T19:50:45.248Z,43.64
2018-07-19T19:53:12.695Z,43.19
2018-07-19T19:55:40.170Z,43.12
2018-07-19T19:58:07.652Z,43.95
2018-07-19T20:00:35.452Z,44.02
2018-07-19T20:03:03.108Z,44.26
2018-07-19T20:05:30.632Z,44.63
2018-07-19T20:07:58.136Z,44.32
2018-07-19T20:10:25.602Z,44.04
2018-07-19T20:12:53.051Z,44.26
2018-07-19T20:15:20.773Z,44.98
2018-07-19T20:17:48.552Z,45.17
2018-07-19T20:20:15.996Z,45.22
2018-07-19T20:22:43.710Z,45.27
2018-07-19T20:25:11.424Z,45.40
2018-07-19T20:27:39.111Z,45.12
2018-07-19T20:30:06.571Z,44.52
2018-07-19T20:32:34.085Z,44.04
2018-07-19T20:35:01.498Z,43.65
2018-07-19T20:37:28.971Z,43.80
2018-07-19T20:39:56.510Z,43.98
2018-07-19T20:42:23.979Z,44.10
2018-07-19T20:44:51.566Z,44.29
2018-07-19T20:47:19.050Z,44.13
2018-07-19T20:49:46.515Z,44.63
2018-07-19T20:52:13.932Z,45.10
2018-07-19T20:54:41.374Z,45.09
2018-07-19T20:57:08.928Z,45.03
2018-07-19T20:59:36.570Z,45.26
2018-07-19T21:02:04.031Z,45.94
2018-07-19T21:04:31.618Z,46.54
2018-07-19T21:06:59.067Z,46.19
2018-07-19T21:09:26.529Z,44.59
2018-07-19T21:11:54.006Z,43.80
2018-07-19T21:14:21.480Z,43.73
2018-07-19T21:16:48.999Z,43.89
2018-07-19T21:19:16.456Z,43.74
2018-07-19T21:21:44.053Z,44.21
2018-07-19T21:24:11.587Z,44.59
2018-07-19T21:26:39.040Z,44.63
2018-07-19T21:29:06.668Z,44.95
2018-07-19T21:31:34.175Z,45.74
2018-07-19T21:34:01.669Z,45.97
2018-07-19T21:36:29.131Z,45.74
2018-07-19T21:38:56.611Z,46.11
2018-07-19T21:41:24.131Z,45.87
2018-07-19T21:43:51.585Z,45.73
2018-07-19T21:46:19.088Z,46.04
2018-07-19T21:48:46.535Z,45.95
2018-07-19T21:51:14.004Z,46.00
2018-07-19T21:53:41.429Z,46.21
2018-07-19T21:56:08.947Z,46.36
2018-07-19T21:58:36.329Z,46.39
2018-07-19T22:01:03.836Z,46.58
2018-07-19T22:03:31.262Z,46.63
2018-07-19T22:05:58.796Z,46.63
2018-07-19T22:08:26.312Z,46.75
2018-07-19T22:10:53.788Z,47.15
2018-07-19T22:13:21.204Z,47.58
2018-07-19T22:15:48.730Z,48.18
2018-07-19T22:18:16.245Z,48.56
2018-07-19T22:20:43.741Z,49.00
2018-07-19T22:23:13.165Z,49.27
2018-07-19T22:25:40.892Z,49.59
2018-07-19T22:28:08.407Z,49.95
2018-07-19T22:30:35.897Z,49.92
2018-07-19T22:33:03.356Z,50.26
2018-07-19T22:35:30.799Z,50.79
2018-07-19T22:37:58.215Z,51.68
2018-07-19T22:40:25.648Z,50.97
2018-07-19T22:42:53.163Z,51.07
2018-07-19T22:45:20.956Z,50.21
2018-07-19T22:47:48.441Z,50.09
2018-07-19T22:50:16.727Z,49.87
2018-07-19T22:52:44.171Z,50.29
2018-07-19T22:55:11.735Z,49.98
2018-07-19T22:57:39.198Z,49.67
2018-07-19T23:00:06.719Z,49.77
2018-07-19T23:02:34.137Z,49.85
2018-07-19T23:05:01.960Z,49.74
2018-07-19T23:07:29.384Z,49.58
2018-07-19T23:09:56.846Z,48.61
2018-07-19T23:12:24.446Z,48.16
2018-07-19T23:14:51.957Z,49.39
2018-07-19T23:17:19.390Z,48.94
2018-07-19T23:19:46.847Z,48.98
2018-07-19T23:22:14.297Z,48.63
2018-07-19T23:24:41.794Z,49.53
2018-07-19T23:27:09.285Z,49.55
2018-07-19T23:29:36.713Z,49.76
2018-07-19T23:32:04.183Z,49.92
2018-07-19T23:34:31.695Z,50.70
2018-07-19T23:36:59.156Z,50.74
2018-07-19T23:39:26.590Z,50.22
2018-07-19T23:41:54.105Z,49.67
2018-07-19T23:44:21.532Z,49.57
2018-07-19T23:46:48.995Z,50.94
2018-07-19T23:49:16.422Z,51.09
2018-07-19T23:51:43.867Z,51.95
2018-07-19T23:54:11.395Z,52.34
2018-07-19T23:56:38.818Z,52.75
2018-07-19T23:59:06.307Z,53.18
